Time;durP1;ratioP1;P1;durP2;ratioP2;P2;SDS_P1;SDS_P2;PMS_P1;PMS_P2;Temp;Humidity;BMP_temperature;BMP_pressure;BME280_temperature;BME280_humidity;BME280_pressure;Samples;Min_cycle;Max_cycle;Signal;HPM_P1;HPM_P2
2023/12/31 00:00:32;;;;;;;11.30;6.60;;;8.00;99.90;;;;;;4939997;28;20664;-55
2023/12/31 00:02:58;;;;;;;9.33;5.37;;;8.00;99.90;;;;;;4936146;28;20545;-55
2023/12/31 00:05:24;;;;;;;10.23;4.70;;;7.90;99.90;;;;;;4933424;28;20989;-55
2023/12/31 00:07:49;;;;;;;7.20;3.90;;;7.80;99.90;;;;;;4936370;28;20300;-55
2023/12/31 00:10:15;;;;;;;8.57;4.50;;;7.90;99.90;;;;;;4934661;28;20230;-64
2023/12/31 00:12:40;;;;;;;5.47;4.10;;;7.90;99.90;;;;;;4934184;28;20198;-55
2023/12/31 00:15:06;;;;;;;11.23;4.47;;;7.90;99.90;;;;;;4933701;28;20286;-55
2023/12/31 00:17:31;;;;;;;4.40;3.20;;;7.90;99.90;;;;;;4932710;28;20237;-55
2023/12/31 00:19:57;;;;;;;4.63;2.90;;;7.90;99.90;;;;;;4932873;28;20205;-63
2023/12/31 00:22:22;;;;;;;7.17;4.27;;;7.90;99.90;;;;;;4932768;29;20903;-65
2023/12/31 00:24:54;;;;;;;5.40;3.87;;;8.00;99.90;;;;;;4934118;28;20656;-68
2023/12/31 00:27:19;;;;;;;7.13;3.87;;;8.00;99.90;;;;;;4937439;28;20206;-65
2023/12/31 00:29:45;;;;;;;7.30;3.20;;;8.00;99.90;;;;;;4939613;28;20194;-54
2023/12/31 00:32:11;;;;;;;6.73;3.57;;;8.00;99.90;;;;;;4940951;28;20226;-56
2023/12/31 00:34:37;;;;;;;9.30;4.03;;;8.10;99.90;;;;;;4941460;28;20205;-56
2023/12/31 00:37:04;;;;;;;7.40;4.13;;;8.10;99.90;;;;;;4936445;28;20207;-56
2023/12/31 00:39:29;;;;;;;7.80;3.70;;;8.00;99.90;;;;;;4940475;28;20234;-55
2023/12/31 00:41:55;;;;;;;6.23;3.63;;;8.00;99.90;;;;;;4939025;28;20234;-64
2023/12/31 00:44:20;;;;;;;8.97;4.07;;;7.90;99.90;;;;;;4938439;28;20660;-63
2023/12/31 00:46:46;;;;;;;6.90;3.73;;;7.80;99.90;;;;;;4938884;28;20209;-64
2023/12/31 00:49:11;;;;;;;8.23;3.93;;;7.80;99.90;;;;;;4935354;28;20296;-64
2023/12/31 00:51:37;;;;;;;4.43;3.30;;;7.90;99.90;;;;;;4934367;28;20225;-56
2023/12/31 00:54:03;;;;;;;4.50;3.30;;;7.80;99.90;;;;;;4933588;28;20206;-55
2023/12/31 00:56:28;;;;;;;6.77;3.30;;;7.80;99.90;;;;;;4932670;28;21001;-54
2023/12/31 00:58:54;;;;;;;6.87;3.37;;;7.80;99.90;;;;;;4933621;28;20207;-54
2023/12/31 01:01:19;;;;;;;5.80;3.60;;;7.90;99.90;;;;;;4931167;28;20878;-57
2023/12/31 01:03:45;;;;;;;10.77;4.37;;;7.90;99.90;;;;;;4931842;28;21010;-63
2023/12/31 01:06:10;;;;;;;4.83;3.07;;;7.90;99.90;;;;;;4929389;28;20571;-64
2023/12/31 01:08:36;;;;;;;8.37;3.97;;;7.80;99.90;;;;;;4933002;28;20372;-55
2023/12/31 01:11:02;;;;;;;6.20;2.90;;;7.80;99.90;;;;;;4936832;28;20229;-55
2023/12/31 01:13:27;;;;;;;4.87;3.20;;;7.80;99.90;;;;;;4937521;28;20214;-55
2023/12/31 01:15:53;;;;;;;8.07;3.23;;;7.80;99.90;;;;;;4933819;28;20769;-55
2023/12/31 01:18:19;;;;;;;5.70;3.07;;;7.70;99.90;;;;;;4928601;28;20202;-55
2023/12/31 01:20:45;;;;;;;8.40;3.07;;;7.70;99.90;;;;;;4936562;28;20272;-56
2023/12/31 01:23:10;;;;;;;7.73;2.90;;;7.60;99.90;;;;;;4941757;28;20230;-56
2023/12/31 01:25:36;;;;;;;8.93;2.87;;;7.70;99.90;;;;;;4939010;28;20204;-56
2023/12/31 01:28:02;;;;;;;5.57;2.90;;;7.70;99.90;;;;;;4938561;28;20284;-56
2023/12/31 01:30:29;;;;;;;7.13;3.27;;;7.70;99.90;;;;;;4933248;28;20205;-55
2023/12/31 01:32:54;;;;;;;7.27;2.87;;;7.70;99.90;;;;;;4931928;28;20202;-55
2023/12/31 01:35:20;;;;;;;10.50;3.37;;;7.70;99.90;;;;;;4933668;28;20198;-57
2023/12/31 01:37:46;;;;;;;5.33;2.60;;;7.70;99.90;;;;;;4936193;28;20216;-55
2023/12/31 01:40:11;;;;;;;5.93;3.53;;;7.60;99.90;;;;;;4939367;28;20205;-58
2023/12/31 01:42:38;;;;;;;6.27;2.90;;;7.60;99.90;;;;;;4936422;28;20252;-56
2023/12/31 01:45:04;;;;;;;5.80;3.37;;;7.50;99.90;;;;;;4933649;28;20206;-60
2023/12/31 01:47:32;;;;;;;5.47;3.40;;;7.60;99.90;;;;;;4932341;28;20220;-62
2023/12/31 01:49:58;;;;;;;7.50;3.47;;;7.50;99.90;;;;;;4932241;28;20309;-64
2023/12/31 01:52:24;;;;;;;7.13;3.07;;;7.50;99.90;;;;;;4935583;28;20252;-62
2023/12/31 01:54:51;;;;;;;7.50;3.17;;;7.50;99.90;;;;;;4937949;28;20877;-55
2023/12/31 01:57:24;;;;;;;5.63;3.03;;;7.40;99.90;;;;;;4938238;28;20202;-55
2023/12/31 01:59:51;;;;;;;5.23;3.87;;;7.40;99.90;;;;;;4931292;28;20206;-66
2023/12/31 02:02:17;;;;;;;5.07;3.10;;;7.40;99.90;;;;;;4939980;28;20206;-64
2023/12/31 02:04:42;;;;;;;8.03;3.10;;;7.40;99.90;;;;;;4937242;28;20197;-57
2023/12/31 02:07:08;;;;;;;8.27;3.70;;;7.30;99.90;;;;;;4935064;28;20202;-57
2023/12/31 02:09:33;;;;;;;5.53;3.10;;;7.30;99.90;;;;;;4938283;28;20206;-57
2023/12/31 02:11:59;;;;;;;12.70;4.17;;;7.30;99.90;;;;;;4937425;28;20225;-57
2023/12/31 02:14:25;;;;;;;7.40;3.30;;;7.30;99.90;;;;;;4936045;28;20205;-56
2023/12/31 02:16:50;;;;;;;3.90;3.10;;;7.30;99.90;;;;;;4938453;28;20438;-57
2023/12/31 02:19:16;;;;;;;6.70;3.53;;;7.20;99.90;;;;;;4940744;28;20602;-57
2023/12/31 02:21:42;;;;;;;4.80;3.10;;;7.20;99.90;;;;;;4933109;28;20237;-59
2023/12/31 02:24:13;;;;;;;5.90;3.20;;;7.20;99.90;;;;;;4938498;28;20210;-64
2023/12/31 02:26:39;;;;;;;6.67;3.40;;;7.20;99.90;;;;;;4934022;28;20214;-55
2023/12/31 02:29:05;;;;;;;8.83;3.87;;;7.20;99.90;;;;;;4926162;28;20677;-54
2023/12/31 02:31:31;;;;;;;4.33;3.80;;;7.20;99.90;;;;;;4932123;28;20233;-53
2023/12/31 02:33:57;;;;;;;6.27;2.83;;;7.10;99.90;;;;;;4939300;28;20760;-54
2023/12/31 02:36:22;;;;;;;6.77;3.80;;;7.10;99.90;;;;;;4937496;28;20277;-54
2023/12/31 02:38:48;;;;;;;6.80;3.47;;;7.10;99.90;;;;;;4939173;28;20564;-55
2023/12/31 02:41:13;;;;;;;8.17;3.43;;;7.10;99.90;;;;;;4934831;28;20202;-54
2023/12/31 02:43:39;;;;;;;9.03;2.77;;;7.10;99.90;;;;;;4936728;28;20210;-55
2023/12/31 02:46:04;;;;;;;8.13;3.13;;;7.10;99.90;;;;;;4935962;28;20301;-55
2023/12/31 02:48:30;;;;;;;7.10;3.30;;;7.00;99.90;;;;;;4935644;28;20301;-54
2023/12/31 02:50:55;;;;;;;5.67;2.83;;;7.00;99.90;;;;;;4930941;28;20214;-55
2023/12/31 02:53:21;;;;;;;7.63;2.83;;;7.00;99.90;;;;;;4933581;28;20202;-55
2023/12/31 02:55:47;;;;;;;7.17;2.90;;;7.00;99.90;;;;;;4935016;28;20301;-55
2023/12/31 02:58:12;;;;;;;6.23;3.50;;;7.00;99.90;;;;;;4935407;28;20213;-55
2023/12/31 03:00:38;;;;;;;6.50;2.73;;;6.90;99.90;;;;;;4937968;28;20485;-55
2023/12/31 03:03:04;;;;;;;4.30;3.50;;;6.80;99.90;;;;;;4936206;28;20206;-56
2023/12/31 03:05:30;;;;;;;3.87;2.90;;;6.80;99.90;;;;;;4943061;28;20610;-54
2023/12/31 03:07:55;;;;;;;8.47;3.47;;;6.80;99.90;;;;;;4938909;28;20230;-55
2023/12/31 03:10:21;;;;;;;3.87;2.83;;;6.80;99.90;;;;;;4942131;28;20243;-55
2023/12/31 03:12:47;;;;;;;9.10;3.60;;;6.70;99.90;;;;;;4934396;28;20550;-55
2023/12/31 03:15:13;;;;;;;4.90;3.27;;;6.70;99.90;;;;;;4934977;28;20202;-54
2023/12/31 03:17:38;;;;;;;4.43;2.57;;;6.70;99.90;;;;;;4936812;28;20292;-54
2023/12/31 03:20:05;;;;;;;7.83;3.67;;;6.70;99.90;;;;;;4939371;28;20599;-55
2023/12/31 03:22:30;;;;;;;3.17;2.47;;;6.60;99.90;;;;;;4940469;28;20642;-55
2023/12/31 03:24:56;;;;;;;8.97;3.90;;;6.60;99.90;;;;;;4939174;28;20241;-54
2023/12/31 03:27:22;;;;;;;4.90;3.27;;;6.60;99.90;;;;;;4942068;28;20284;-54
2023/12/31 03:29:47;;;;;;;5.37;3.23;;;6.60;99.90;;;;;;4934386;29;20225;-55
2023/12/31 03:32:13;;;;;;;4.43;2.90;;;6.50;99.90;;;;;;4933882;28;20457;-55
2023/12/31 03:34:39;;;;;;;5.73;5.13;;;6.50;99.90;;;;;;4936500;28;20303;-55
2023/12/31 03:37:04;;;;;;;6.73;2.93;;;6.40;99.90;;;;;;4933426;28;20958;-55
2023/12/31 03:39:30;;;;;;;5.60;3.07;;;6.40;99.90;;;;;;4934541;28;20209;-54
2023/12/31 03:41:56;;;;;;;8.07;3.10;;;6.40;99.90;;;;;;4934996;28;20672;-56
2023/12/31 03:44:21;;;;;;;6.03;3.43;;;6.40;99.90;;;;;;4941848;28;20209;-55
2023/12/31 03:46:47;;;;;;;8.93;3.17;;;6.40;99.90;;;;;;4938131;28;20203;-56
2023/12/31 03:49:12;;;;;;;6.50;2.73;;;6.40;99.90;;;;;;4941379;28;20202;-55
2023/12/31 03:51:38;;;;;;;6.20;3.43;;;6.40;99.90;;;;;;4936136;28;20217;-54
2023/12/31 03:54:05;;;;;;;4.83;3.57;;;6.40;99.90;;;;;;4940453;28;20568;-55
2023/12/31 03:56:31;;;;;;;7.40;3.37;;;6.30;99.90;;;;;;4936088;28;20202;-55
2023/12/31 03:58:57;;;;;;;8.70;4.00;;;6.30;99.90;;;;;;4934528;28;20210;-54
2023/12/31 04:01:22;;;;;;;4.27;3.30;;;6.30;99.90;;;;;;4937173;28;20225;-65
2023/12/31 04:03:48;;;;;;;7.20;3.60;;;6.30;99.90;;;;;;4935726;29;20221;-66
2023/12/31 04:06:14;;;;;;;7.53;4.13;;;6.30;99.90;;;;;;4933408;28;20207;-64
2023/12/31 04:08:39;;;;;;;12.90;4.10;;;6.30;99.90;;;;;;4936326;28;20292;-66
2023/12/31 04:11:06;;;;;;;7.70;4.03;;;6.30;99.90;;;;;;4932951;28;20242;-55
2023/12/31 04:13:32;;;;;;;6.60;3.73;;;6.30;99.90;;;;;;4933236;28;20202;-55
2023/12/31 04:15:57;;;;;;;6.67;3.43;;;6.20;99.90;;;;;;4935870;28;20472;-54
2023/12/31 04:18:23;;;;;;;6.37;2.90;;;6.20;99.90;;;;;;4943473;28;20198;-54
2023/12/31 04:20:49;;;;;;;9.43;3.20;;;6.20;99.90;;;;;;4939346;28;20271;-54
2023/12/31 04:23:14;;;;;;;9.67;3.17;;;6.20;99.90;;;;;;4940146;28;20237;-55
2023/12/31 04:25:40;;;;;;;5.17;2.60;;;6.20;99.90;;;;;;4934601;28;20220;-55
2023/12/31 04:28:06;;;;;;;6.10;2.93;;;6.20;99.90;;;;;;4937888;28;20244;-55
2023/12/31 04:30:31;;;;;;;3.20;2.40;;;6.20;99.90;;;;;;4938070;28;20318;-55
2023/12/31 04:32:57;;;;;;;9.03;3.77;;;6.20;99.90;;;;;;4942155;28;20191;-55
2023/12/31 04:35:22;;;;;;;5.30;2.83;;;6.20;99.90;;;;;;4940535;28;20753;-55
2023/12/31 04:37:48;;;;;;;6.63;3.67;;;6.20;99.90;;;;;;4940075;28;21025;-54
2023/12/31 04:40:14;;;;;;;10.20;3.33;;;6.20;99.90;;;;;;4933634;28;20207;-54
2023/12/31 04:42:39;;;;;;;5.33;3.57;;;6.20;99.90;;;;;;4932285;28;20186;-54
2023/12/31 04:45:08;;;;;;;6.03;3.80;;;6.30;99.90;;;;;;4933968;28;20230;-54
2023/12/31 04:47:35;;;;;;;9.83;2.83;;;6.30;99.90;;;;;;4936253;28;20702;-55
2023/12/31 04:50:01;;;;;;;7.77;3.03;;;6.30;99.90;;;;;;4932070;28;20548;-54
2023/12/31 04:52:27;;;;;;;6.77;3.43;;;6.20;99.90;;;;;;4932537;28;20222;-55
2023/12/31 04:54:52;;;;;;;6.13;2.50;;;6.20;99.90;;;;;;4932711;28;20269;-55
2023/12/31 04:57:18;;;;;;;3.87;3.17;;;6.30;99.90;;;;;;4933143;28;20210;-55
2023/12/31 04:59:43;;;;;;;7.03;2.40;;;6.30;99.90;;;;;;4936229;28;20221;-54
2023/12/31 05:02:09;;;;;;;6.73;3.13;;;6.30;99.90;;;;;;4936915;28;20205;-55
2023/12/31 05:04:34;;;;;;;6.57;2.83;;;6.40;99.90;;;;;;4936124;28;20692;-54
2023/12/31 05:07:00;;;;;;;11.17;3.23;;;6.40;99.90;;;;;;4938406;28;20838;-55
2023/12/31 05:09:26;;;;;;;6.93;3.43;;;6.30;99.90;;;;;;4932566;28;20217;-55
2023/12/31 05:11:51;;;;;;;4.40;2.93;;;6.20;99.90;;;;;;4932485;28;20314;-55
2023/12/31 05:14:17;;;;;;;6.53;2.90;;;6.20;99.90;;;;;;4932937;28;20206;-55
2023/12/31 05:16:42;;;;;;;8.87;3.93;;;6.20;99.90;;;;;;4937377;28;20225;-55
2023/12/31 05:19:08;;;;;;;4.87;3.30;;;6.30;99.90;;;;;;4934099;28;20225;-55
2023/12/31 05:21:34;;;;;;;6.03;3.33;;;6.40;99.90;;;;;;4941908;28;20572;-55
2023/12/31 05:24:00;;;;;;;5.13;3.83;;;6.40;99.90;;;;;;4935056;28;20202;-55
2023/12/31 05:26:25;;;;;;;6.87;4.07;;;6.50;99.90;;;;;;4936178;28;20656;-55
2023/12/31 05:28:52;;;;;;;7.00;3.47;;;6.40;99.90;;;;;;4932491;28;20760;-57
2023/12/31 05:31:17;;;;;;;4.60;2.90;;;6.40;99.90;;;;;;4936059;28;20646;-55
2023/12/31 05:33:44;;;;;;;4.17;3.20;;;6.40;99.90;;;;;;4937765;28;20604;-54
2023/12/31 05:36:11;;;;;;;8.07;3.33;;;6.40;99.90;;;;;;4934206;28;20288;-55
2023/12/31 05:38:36;;;;;;;4.30;3.10;;;6.30;99.90;;;;;;4934847;28;20204;-55
2023/12/31 05:41:02;;;;;;;4.37;2.67;;;6.30;99.90;;;;;;4937307;28;20195;-55
2023/12/31 05:43:27;;;;;;;3.80;2.93;;;6.30;99.90;;;;;;4933053;28;20549;-55
2023/12/31 05:45:53;;;;;;;8.03;3.33;;;6.30;99.90;;;;;;4936213;28;20198;-55
2023/12/31 05:48:18;;;;;;;4.70;3.40;;;6.40;99.90;;;;;;4935133;28;20693;-55
2023/12/31 05:50:46;;;;;;;9.93;3.27;;;6.40;99.90;;;;;;4934508;28;20225;-54
2023/12/31 05:53:12;;;;;;;6.30;2.70;;;6.40;99.90;;;;;;4934441;28;20202;-55
2023/12/31 05:55:37;;;;;;;6.00;3.07;;;6.40;99.90;;;;;;4937978;28;20199;-55
2023/12/31 05:58:03;;;;;;;4.93;3.07;;;6.40;99.90;;;;;;4938200;28;20690;-55
2023/12/31 06:00:28;;;;;;;6.30;3.40;;;6.40;99.90;;;;;;4937617;28;20210;-55
2023/12/31 06:02:54;;;;;;;6.43;3.20;;;6.30;99.90;;;;;;4937260;28;20205;-55
2023/12/31 06:05:19;;;;;;;5.37;3.20;;;6.30;99.90;;;;;;4940922;28;20277;-55
2023/12/31 06:07:45;;;;;;;3.10;2.80;;;6.40;99.90;;;;;;4933812;28;20201;-55
2023/12/31 06:10:11;;;;;;;8.07;3.53;;;6.40;99.90;;;;;;4935173;28;20300;-55
2023/12/31 06:12:36;;;;;;;3.90;3.50;;;6.50;99.90;;;;;;4936701;28;20388;-55
2023/12/31 06:15:06;;;;;;;4.60;2.60;;;6.50;99.90;;;;;;4935581;28;20201;-55
2023/12/31 06:17:32;;;;;;;7.73;3.10;;;6.50;99.90;;;;;;4937090;28;20282;-55
2023/12/31 06:19:57;;;;;;;6.13;3.10;;;6.60;99.90;;;;;;4937913;28;20209;-55
2023/12/31 06:22:23;;;;;;;3.37;3.07;;;6.50;99.90;;;;;;4937057;28;20262;-55
2023/12/31 06:24:48;;;;;;;5.53;3.10;;;6.50;99.90;;;;;;4931199;28;20198;-55
2023/12/31 06:27:14;;;;;;;4.37;3.27;;;6.50;99.90;;;;;;4931713;28;20643;-55
2023/12/31 06:29:39;;;;;;;4.53;3.27;;;6.50;99.90;;;;;;4938583;28;20205;-55
2023/12/31 06:32:05;;;;;;;5.23;3.70;;;6.50;99.90;;;;;;4936524;28;20221;-55
2023/12/31 06:34:30;;;;;;;5.23;3.07;;;6.50;99.90;;;;;;4940145;28;20204;-55
2023/12/31 06:36:56;;;;;;;4.33;3.13;;;6.50;99.90;;;;;;4945226;28;20763;-54
2023/12/31 06:39:21;;;;;;;3.60;2.67;;;6.60;99.90;;;;;;4942107;28;20213;-55
2023/12/31 06:41:47;;;;;;;3.17;2.70;;;6.60;99.90;;;;;;4942055;28;20204;-66
2023/12/31 06:44:12;;;;;;;4.60;3.10;;;6.60;99.90;;;;;;4937115;28;20667;-55
2023/12/31 06:46:37;;;;;;;4.80;3.17;;;6.60;99.90;;;;;;4937769;28;20209;-55
2023/12/31 06:49:03;;;;;;;3.37;3.00;;;6.60;99.90;;;;;;4939932;28;20214;-53
2023/12/31 06:51:29;;;;;;;6.23;2.87;;;6.60;99.90;;;;;;4931608;28;20249;-54
2023/12/31 06:53:54;;;;;;;5.40;3.20;;;6.60;99.90;;;;;;4939241;28;20750;-54
2023/12/31 06:56:21;;;;;;;4.90;2.30;;;6.60;99.90;;;;;;4939120;28;20720;-56
2023/12/31 06:58:47;;;;;;;4.60;3.27;;;6.50;99.90;;;;;;4939073;28;20202;-54
2023/12/31 07:01:13;;;;;;;4.93;3.13;;;6.50;99.90;;;;;;4933331;28;20207;-54
2023/12/31 07:03:38;;;;;;;4.20;2.70;;;6.50;99.90;;;;;;4938529;28;20217;-53
2023/12/31 07:06:07;;;;;;;6.53;3.63;;;6.70;99.90;;;;;;4937736;28;20198;-57
2023/12/31 07:08:33;;;;;;;2.77;2.53;;;6.70;99.90;;;;;;4939781;28;20190;-55
2023/12/31 07:10:59;;;;;;;3.50;3.20;;;6.70;99.90;;;;;;4942693;28;20755;-54
2023/12/31 07:13:24;;;;;;;7.57;2.63;;;6.70;99.90;;;;;;4934708;28;20532;-55
2023/12/31 07:15:50;;;;;;;3.80;2.60;;;6.60;99.90;;;;;;4939165;28;20202;-55
2023/12/31 07:18:15;;;;;;;5.17;2.67;;;6.60;99.90;;;;;;4941263;28;20623;-55
2023/12/31 07:20:41;;;;;;;3.13;2.63;;;6.60;99.90;;;;;;4940993;28;20229;-55
2023/12/31 07:23:06;;;;;;;6.07;2.57;;;6.60;99.90;;;;;;4943659;28;20591;-53
2023/12/31 07:25:32;;;;;;;4.30;2.80;;;6.60;99.90;;;;;;4942469;28;20196;-54
2023/12/31 07:27:58;;;;;;;3.83;2.87;;;6.50;99.90;;;;;;4944478;28;20560;-54
2023/12/31 07:30:25;;;;;;;9.07;2.80;;;6.60;99.90;;;;;;4939501;28;20654;-54
2023/12/31 07:32:51;;;;;;;4.83;2.73;;;6.70;99.90;;;;;;4944884;28;20221;-54
2023/12/31 07:35:16;;;;;;;4.30;3.00;;;6.50;99.90;;;;;;4938421;28;20623;-53
2023/12/31 07:37:42;;;;;;;5.43;3.27;;;6.50;99.90;;;;;;4941038;28;20313;-67
2023/12/31 07:40:08;;;;;;;4.77;3.13;;;6.60;99.90;;;;;;4943678;28;20660;-62
2023/12/31 07:42:35;;;;;;;3.87;2.40;;;6.70;99.90;;;;;;4940701;28;20495;-63
2023/12/31 07:45:01;;;;;;;3.47;2.67;;;6.70;99.90;;;;;;4943119;28;20206;-64
2023/12/31 07:47:27;;;;;;;3.47;2.57;;;6.70;99.90;;;;;;4936314;28;20202;-64
2023/12/31 07:49:52;;;;;;;7.90;3.07;;;6.60;99.90;;;;;;4932197;28;20206;-64
2023/12/31 07:52:18;;;;;;;4.90;2.63;;;6.60;99.90;;;;;;4938283;28;20290;-63
2023/12/31 07:54:43;;;;;;;3.63;2.50;;;6.70;99.90;;;;;;4935611;28;20570;-63
2023/12/31 07:57:09;;;;;;;3.07;2.70;;;6.70;99.90;;;;;;4938974;28;20205;-55
2023/12/31 07:59:35;;;;;;;6.50;2.60;;;6.70;99.90;;;;;;4936783;28;20213;-63
2023/12/31 08:02:02;;;;;;;4.47;2.67;;;6.80;99.90;;;;;;4935378;28;20214;-54
2023/12/31 08:04:28;;;;;;;3.37;2.73;;;6.80;99.90;;;;;;4938554;28;20210;-55
2023/12/31 08:06:54;;;;;;;2.60;2.40;;;6.70;99.90;;;;;;4935527;28;20694;-56
2023/12/31 08:09:19;;;;;;;3.73;2.40;;;6.70;99.90;;;;;;4936532;28;20210;-56
2023/12/31 08:11:45;;;;;;;4.60;2.30;;;6.80;99.90;;;;;;4932062;28;20950;-55
2023/12/31 08:14:10;;;;;;;3.67;2.10;;;6.70;99.90;;;;;;4937533;28;20214;-55
2023/12/31 08:16:36;;;;;;;2.70;2.47;;;6.70;99.90;;;;;;4933668;28;20252;-56
2023/12/31 08:19:03;;;;;;;5.87;2.60;;;6.70;99.90;;;;;;4932941;28;20210;-55
2023/12/31 08:21:29;;;;;;;3.40;2.60;;;6.70;99.90;;;;;;4934930;28;20202;-56
2023/12/31 08:23:54;;;;;;;6.13;2.73;;;6.70;99.90;;;;;;4938707;28;20205;-56
2023/12/31 08:26:20;;;;;;;4.83;2.30;;;6.80;99.90;;;;;;4920427;28;20202;-55
2023/12/31 08:28:46;;;;;;;3.33;2.50;;;6.80;99.90;;;;;;4939784;28;20217;-56
2023/12/31 08:31:13;;;;;;;2.77;2.37;;;6.90;99.90;;;;;;4940734;28;20218;-54
2023/12/31 08:33:38;;;;;;;2.73;2.40;;;7.00;99.90;;;;;;4939419;28;20201;-54
2023/12/31 08:36:04;;;;;;;4.67;2.63;;;7.10;99.90;;;;;;4937384;28;20936;-55
2023/12/31 08:38:29;;;;;;;2.37;2.17;;;7.20;99.90;;;;;;4939888;28;20197;-56
2023/12/31 08:40:55;;;;;;;2.67;2.33;;;7.20;99.90;;;;;;4936207;28;20190;-55
2023/12/31 08:43:20;;;;;;;4.33;2.33;;;7.20;99.90;;;;;;4934747;28;20206;-55
2023/12/31 08:45:46;;;;;;;4.40;2.10;;;7.20;99.90;;;;;;4932562;28;20206;-57
2023/12/31 08:48:12;;;;;;;4.10;2.30;;;7.20;99.90;;;;;;4935037;28;20201;-55
2023/12/31 08:50:37;;;;;;;5.27;2.40;;;7.20;99.90;;;;;;4929928;28;20210;-54
2023/12/31 08:53:03;;;;;;;3.63;2.20;;;7.30;99.90;;;;;;4929941;28;20998;-54
2023/12/31 08:55:29;;;;;;;3.27;2.33;;;7.10;99.90;;;;;;4933529;28;20210;-55
2023/12/31 08:57:54;;;;;;;4.63;3.70;;;7.20;99.90;;;;;;4931899;28;20198;-54
2023/12/31 09:00:20;;;;;;;3.57;2.43;;;7.30;99.90;;;;;;4933148;28;20226;-54
2023/12/31 09:02:47;;;;;;;4.47;2.37;;;7.30;99.90;;;;;;4935308;28;20294;-56
2023/12/31 09:05:12;;;;;;;3.03;2.73;;;7.30;99.90;;;;;;4932000;28;20200;-57
2023/12/31 09:07:40;;;;;;;5.83;2.20;;;7.20;99.90;;;;;;4934272;28;20872;-63
2023/12/31 09:10:07;;;;;;;4.07;2.90;;;7.30;99.90;;;;;;4930545;28;20280;-54
2023/12/31 09:12:32;;;;;;;5.23;3.13;;;7.50;99.90;;;;;;4930726;28;20696;-54
2023/12/31 09:14:58;;;;;;;2.90;2.53;;;7.50;99.90;;;;;;4934127;28;20209;-55
2023/12/31 09:17:24;;;;;;;4.53;2.07;;;7.50;99.90;;;;;;4932291;28;20240;-54
2023/12/31 09:19:50;;;;;;;2.87;2.63;;;7.30;99.90;;;;;;4932924;28;20197;-54
2023/12/31 09:22:15;;;;;;;6.90;2.60;;;7.40;99.90;;;;;;4945697;28;20303;-54
2023/12/31 09:24:41;;;;;;;3.17;2.33;;;7.40;99.90;;;;;;4933738;28;20202;-55
2023/12/31 09:27:07;;;;;;;3.10;2.43;;;7.40;99.90;;;;;;4934133;28;20539;-56
2023/12/31 09:29:34;;;;;;;6.10;3.00;;;7.40;99.90;;;;;;4937334;28;20239;-56
2023/12/31 09:31:59;;;;;;;2.73;2.43;;;7.40;99.90;;;;;;4932998;28;20225;-55
2023/12/31 09:34:25;;;;;;;2.70;2.17;;;7.50;99.90;;;;;;4933972;28;21083;-54
2023/12/31 09:36:51;;;;;;;5.57;2.47;;;7.50;99.90;;;;;;4937263;28;20210;-54
2023/12/31 09:39:17;;;;;;;3.53;2.50;;;7.40;99.90;;;;;;4934174;28;20193;-53
2023/12/31 09:41:44;;;;;;;6.57;3.27;;;7.40;99.90;;;;;;4935037;28;20202;-55
2023/12/31 09:44:12;;;;;;;6.63;2.63;;;7.40;99.90;;;;;;4932246;28;20352;-54
2023/12/31 09:46:38;;;;;;;6.40;2.63;;;7.40;99.90;;;;;;4935589;28;20241;-55
2023/12/31 09:49:05;;;;;;;3.27;2.33;;;7.40;99.90;;;;;;4932369;28;20262;-54
2023/12/31 09:51:32;;;;;;;3.17;2.90;;;7.40;99.90;;;;;;4927715;28;20324;-56
2023/12/31 09:53:59;;;;;;;5.80;2.73;;;7.40;99.90;;;;;;4935330;28;20967;-55
2023/12/31 09:56:27;;;;;;;4.20;2.83;;;7.30;99.90;;;;;;4933184;28;20206;-63
2023/12/31 09:58:56;;;;;;;5.40;2.03;;;7.30;99.90;;;;;;4935552;28;20209;-55
2023/12/31 10:01:24;;;;;;;5.47;2.90;;;7.40;99.90;;;;;;4934630;28;20815;-55
2023/12/31 10:03:50;;;;;;;5.70;2.63;;;7.40;99.90;;;;;;4937765;28;20547;-54
2023/12/31 10:06:16;;;;;;;8.83;3.37;;;7.40;99.90;;;;;;4937064;28;20308;-54
2023/12/31 10:08:43;;;;;;;2.43;2.23;;;7.40;99.90;;;;;;4937901;28;20213;-54
2023/12/31 10:11:09;;;;;;;3.93;2.30;;;7.40;99.90;;;;;;4936438;28;21080;-54
2023/12/31 10:13:34;;;;;;;6.40;4.07;;;7.40;99.90;;;;;;4930615;28;20252;-55
2023/12/31 10:16:12;;;;;;;4.83;3.10;;;7.50;99.90;;;;;;4924173;28;20202;-55
2023/12/31 10:18:38;;;;;;;4.47;2.43;;;7.50;99.90;;;;;;4923371;28;20242;-67
2023/12/31 10:21:03;;;;;;;4.33;2.80;;;7.50;99.90;;;;;;4927164;28;20853;-60
2023/12/31 10:23:29;;;;;;;3.67;2.77;;;7.50;99.90;;;;;;4927967;28;20299;-62
2023/12/31 10:25:57;;;;;;;5.77;3.47;;;7.60;99.90;;;;;;4928594;28;20314;-58
2023/12/31 10:28:23;;;;;;;2.87;2.50;;;7.50;99.90;;;;;;4926190;28;20209;-66
2023/12/31 10:30:49;;;;;;;3.67;2.67;;;7.60;99.90;;;;;;4925773;28;20245;-57
2023/12/31 10:33:15;;;;;;;3.03;2.83;;;7.60;99.90;;;;;;4928719;28;20221;-56
2023/12/31 10:35:45;;;;;;;5.23;2.90;;;7.60;99.90;;;;;;4923209;28;20294;-56
2023/12/31 10:38:11;;;;;;;5.43;3.07;;;7.60;99.90;;;;;;4927319;28;20198;-68
2023/12/31 10:40:36;;;;;;;7.80;3.30;;;7.70;99.90;;;;;;4926762;28;20218;-72
2023/12/31 10:43:07;;;;;;;3.77;2.77;;;7.70;99.90;;;;;;4929956;28;20214;-65
2023/12/31 10:45:33;;;;;;;6.10;2.90;;;7.70;99.90;;;;;;4928504;28;21047;-55
2023/12/31 10:48:08;;;;;;;4.33;2.67;;;7.70;99.90;;;;;;4924155;28;20193;-55
2023/12/31 10:50:37;;;;;;;3.03;2.73;;;7.80;99.90;;;;;;4928324;28;20201;-62
2023/12/31 10:53:07;;;;;;;4.03;3.23;;;7.90;99.90;;;;;;4931920;28;20284;-56
2023/12/31 10:55:34;;;;;;;5.43;2.80;;;7.90;99.90;;;;;;4928707;28;20205;-55
2023/12/31 10:58:01;;;;;;;4.63;3.03;;;7.90;99.90;;;;;;4932438;28;20213;-56
2023/12/31 11:00:27;;;;;;;4.00;2.60;;;7.90;99.90;;;;;;4931019;28;20562;-55
2023/12/31 11:02:57;;;;;;;3.63;3.33;;;7.90;99.90;;;;;;4939292;28;20762;-56
2023/12/31 11:05:24;;;;;;;6.03;2.73;;;8.00;99.90;;;;;;4935295;28;20210;-55
2023/12/31 11:07:50;;;;;;;4.33;2.67;;;8.10;99.90;;;;;;4930336;28;20202;-55
2023/12/31 11:10:17;;;;;;;3.37;2.33;;;8.10;99.90;;;;;;4930860;28;20217;-54
2023/12/31 11:12:48;;;;;;;5.60;2.83;;;8.20;99.90;;;;;;4937840;28;20234;-54
2023/12/31 11:15:17;;;;;;;3.83;3.17;;;8.20;99.90;;;;;;4938353;28;20213;-54
2023/12/31 11:17:52;;;;;;;4.00;3.00;;;8.30;99.90;;;;;;4930298;28;20198;-53
2023/12/31 11:20:35;;;;;;;3.67;2.87;;;8.30;99.90;;;;;;4930376;28;20202;-54
2023/12/31 11:23:32;;;;;;;3.23;2.67;;;8.20;99.90;;;;;;4932409;28;20704;-53
2023/12/31 11:25:59;;;;;;;4.83;2.70;;;8.30;99.90;;;;;;4933373;28;20209;-55
2023/12/31 11:28:28;;;;;;;3.90;2.60;;;8.40;99.90;;;;;;4932300;28;21463;-56
2023/12/31 11:30:58;;;;;;;3.80;2.73;;;8.50;99.90;;;;;;4934406;28;20815;-55
2023/12/31 11:33:31;;;;;;;2.90;2.60;;;8.60;99.90;;;;;;4934510;28;20656;-55
2023/12/31 11:36:05;;;;;;;4.43;3.00;;;8.70;99.90;;;;;;4935017;28;20206;-55
2023/12/31 11:38:56;;;;;;;5.60;2.93;;;8.70;99.90;;;;;;4937152;28;20925;-55
2023/12/31 11:41:50;;;;;;;4.17;3.17;;;8.60;99.90;;;;;;4935417;28;20198;-56
2023/12/31 11:44:37;;;;;;;4.87;3.10;;;8.50;99.90;;;;;;4934558;28;20247;-56
2023/12/31 11:47:25;;;;;;;3.80;2.33;;;8.50;99.90;;;;;;4932551;28;20674;-56
2023/12/31 11:49:55;;;;;;;4.30;2.50;;;8.40;99.90;;;;;;4928850;28;20289;-54
2023/12/31 11:52:31;;;;;;;5.33;2.60;;;8.50;99.90;;;;;;4934164;28;20240;-59
2023/12/31 11:54:58;;;;;;;3.33;2.80;;;8.50;99.90;;;;;;4936449;28;20248;-57
2023/12/31 11:57:25;;;;;;;4.30;2.47;;;8.60;99.90;;;;;;4934733;28;20229;-55
2023/12/31 11:59:51;;;;;;;5.07;3.03;;;8.60;99.90;;;;;;4935188;28;20202;-55
2023/12/31 12:02:17;;;;;;;5.23;2.83;;;8.70;99.90;;;;;;4926525;28;20257;-58
2023/12/31 12:04:42;;;;;;;3.43;2.60;;;8.70;99.90;;;;;;4934468;28;20244;-54
2023/12/31 12:07:09;;;;;;;4.33;2.23;;;8.60;99.90;;;;;;4930872;28;20198;-62
2023/12/31 12:09:36;;;;;;;3.67;2.47;;;8.60;99.90;;;;;;4932948;28;20549;-55
2023/12/31 12:12:04;;;;;;;2.70;2.33;;;8.60;99.90;;;;;;4934219;28;20222;-55
2023/12/31 12:14:31;;;;;;;3.03;2.57;;;8.60;99.90;;;;;;4934909;28;20206;-55
2023/12/31 12:16:57;;;;;;;3.17;2.87;;;8.60;99.90;;;;;;4933853;28;20843;-55
2023/12/31 12:19:25;;;;;;;3.70;3.10;;;8.50;99.90;;;;;;4934201;28;20311;-55
2023/12/31 12:21:51;;;;;;;4.20;2.83;;;8.70;99.90;;;;;;4935668;28;20762;-56
2023/12/31 12:24:18;;;;;;;3.70;2.63;;;8.70;99.90;;;;;;4937513;28;20550;-56
2023/12/31 12:26:46;;;;;;;6.60;3.17;;;8.80;99.90;;;;;;4934164;28;20222;-55
2023/12/31 12:29:16;;;;;;;3.83;3.30;;;8.80;99.90;;;;;;4934277;28;20213;-56
2023/12/31 12:31:46;;;;;;;2.67;2.43;;;8.70;99.90;;;;;;4933594;28;20582;-55
2023/12/31 12:34:13;;;;;;;5.53;3.03;;;8.80;99.90;;;;;;4932530;28;20208;-54
2023/12/31 12:36:39;;;;;;;2.83;2.60;;;8.90;99.90;;;;;;4932001;28;20218;-54
2023/12/31 12:39:05;;;;;;;4.20;2.60;;;8.90;99.90;;;;;;4933515;28;20206;-56
2023/12/31 12:41:31;;;;;;;3.13;2.80;;;8.90;99.90;;;;;;4932070;28;20232;-55
2023/12/31 12:43:58;;;;;;;4.57;2.90;;;8.90;99.90;;;;;;4929761;28;20197;-56
2023/12/31 12:46:30;;;;;;;4.07;2.23;;;9.00;99.90;;;;;;4934570;28;20244;-56
2023/12/31 12:48:56;;;;;;;4.13;3.17;;;9.00;99.90;;;;;;4932708;28;20221;-56
2023/12/31 12:51:25;;;;;;;3.87;2.97;;;9.00;99.90;;;;;;4934922;28;20279;-75
2023/12/31 12:53:53;;;;;;;6.33;3.00;;;8.90;99.90;;;;;;4939518;28;20687;-71